Pine Hills (222, JU1, PE1) Station Data

Red Flag Warning: No
Fire Weather Zone: 258
SDGE Region: Ramona
Lat/Lon: 33.049/-116.637

Observations

Time Wind Speed/Gust Temp(F) RH Fuel Moist Fuel Temp(F) Dewpt(F) Tmax(F) Tmin(F) Accum Precip 10-min Precip SL Press(mb)
4/29 11:50pm 219 1 G 2 48° 34% - - 20° 67.4° 45.9° - - -
4/29 11:40pm 239 1 G 4 46° 34% - - 20° 67.4° 45.9° - - -
4/29 11:30pm 253 3 G 3 46° 34% - - 20° 67.4° 45.9° - - -
4/29 11:20pm 318 1 G 3 48° 33% - - 20° 67.4° 46.2° - - -
4/29 11:10pm 120 2 G 4 48° 31% - - 19° 67.4° 46.2° - - -
4/29 11:00pm 147 2 G 4 47° 34% - - 20° 67.4° 46.2° - - -
4/29 10:50pm 177 1 G 3 47° 34% - - 20° 67.4° 46.2° - - -
4/29 10:40pm 100 0 G 1 48° 34% - - 20° 67.4° 47.1° - - -
4/29 10:30pm 247 1 G 3 48° 33% - - 21° 67.4° 47.4° - - -
4/29 10:20pm 267 2 G 2 48° 34% - - 21° 67.4° 47.9° - - -
4/29 10:10pm 264 1 G 2 49° 33% - - 21° 67.4° 48.1° - - -
4/29 10:00pm 181 0 G 2 50° 32% - - 21° 67.4° 49° - - -
4/29 9:50pm 200 1 G 3 50° 32% - - 21° 67.4° 49° - - -
4/29 9:40pm 231 1 G 2 49° 32% - - 21° 67.4° 49° - - -
4/29 9:30pm 263 3 G 4 50° 31% - - 21° 67.4° 49.4° - - -
4/29 9:20pm 268 2 G 3 52° 30% - - 22° 67.4° 50.4° - - -
4/29 9:10pm 256 1 G 3 52° 31% - - 22° 67.4° 50.4° - - -
4/29 9:00pm 113 0 G 0 52° 30% - - 22° 67.4° 50.4° - - -
4/29 8:50pm 60 1 G 2 53° 29% - - 21° 67.4° 50.4° - - -
4/29 8:40pm 135 1 G 3 56° 25% - - 21° 67.4° 50.4° - - -
4/29 8:30pm 115 2 G 2 56° 25% - - 21° 67.4° 50.4° - - -
4/29 8:20pm 126 1 G 3 57° 24% - - 20° 67.4° 50.4° - - -
4/29 8:10pm 236 3 G 4 58° 23% - - 20° 67.4° 50.4° - - -
4/29 8:00pm 225 3 G 5 57° 24% - - 21° 67.4° 50.4° - - -
4/29 7:50pm 186 2 G 4 56° 25% - - 21° 67.4° 50.4° - - -
4/29 7:40pm 238 2 G 5 58° 23% - - 21° 67.4° 50.4° - - -
4/29 7:30pm 240 3 G 7 59° 22% - - 21° 67.4° 50.4° - - -
4/29 7:20pm 255 2 G 5 60° 22% - - 21° 67.4° 50.4° - - -
4/29 7:10pm 258 3 G 7 62° 20% - - 21° 67.4° 50.4° - - -
4/29 7:00pm 321 2 G 5 64° 16% - - 16° 67.4° 50.4° - - -
4/29 6:50pm 74 4 G 8 64° 13% - - 13° 67.4° 50.4° - - -
4/29 6:40pm 47 3 G 7 64° 13% - - 13° 67.4° 50.4° - - -
4/29 6:30pm 32 6 G 9 64° 13% - - 12° 67.4° 50.4° - - -
4/29 6:20pm 59 5 G 10 65° 13% - - 13° 67.4° 50.4° - - -
4/29 6:10pm 48 6 G 11 65° 13% - - 13° 67.4° 50.4° - - -
4/29 6:00pm 350 2 G 8 65° 15% - - 15° 66.1° 49.1° - - -
4/29 5:50pm 26 5 G 12 65° 14% - - 14° 66.1° 49.1° - - -
4/29 5:40pm 86 4 G 10 65° 15% - - 16° 66.1° 49.1° - - -
4/29 5:30pm 42 5 G 10 65° 14% - - 16° 66.1° 49.1° - - -
4/29 5:20pm 41 4 G 12 65° 14% - - 15° 66.1° 49.1° - - -
4/29 5:10pm 48 6 G 12 65° 14% - - 14° 66.1° 49.1° - - -
4/29 5:00pm 61 7 G 15 65° 14% - - 16° 66.1° 49.1° - - -
4/29 4:50pm 53 7 G 14 65° 14% - - 15° 65.9° 49.1° - - -
4/29 4:40pm 62 6 G 13 65° 14% - - 15° 65.9° 49.1° - - -
4/29 4:30pm 48 4 G 11 65° 15% - - 16° 65.9° 49.1° - - -
4/29 4:20pm 71 5 G 14 65° 14% - - 14° 65.3° 49.1° - - -
4/29 4:10pm 45 8 G 15 65° 14% - - 14° 65.3° 49.1° - - -
4/29 4:00pm 44 7 G 14 64° 14% - - 15° 65.3° 49.1° - - -
4/29 3:50pm 55 8 G 14 64° 14% - - 14° 65.3° 49.1° - - -
4/29 3:40pm 72 4 G 11 65° 15% - - 17° 65.3° 49.1° - - -
4/29 3:30pm 41 8 G 16 64° 15% - - 15° 65.3° 49.1° - - -
4/29 3:20pm 49 7 G 17 64° 14% - - 13° 65.3° 49.1° - - -
4/29 3:10pm 48 6 G 15 64° 16% - - 17° 65.1° 49.1° - - -
4/29 3:00pm 35 5 G 13 64° 15% - - 16° 64.4° 49.1° - - -
4/29 2:50pm 55 8 G 16 64° 14% - - 14° 64.3° 49.1° - - -
4/29 2:40pm 53 8 G 17 63° 14% - - 14° 64.3° 49.1° - - -
4/29 2:30pm 63 7 G 16 63° 15% - - 14° 64.3° 49.1° - - -
4/29 2:20pm 74 7 G 13 63° 16% - - 15° 64.3° 49.1° - - -
4/29 2:10pm 32 7 G 17 63° 14% - - 13° 64.3° 49.1° - - -
4/29 2:00pm 49 6 G 12 63° 16% - - 16° 64.3° 49.1° - - -
4/29 1:50pm 53 6 G 14 62° 15% - - 14° 62.9° 49.1° - - -
4/29 1:40pm 60 8 G 19 62° 16% - - 15° 62.7° 49.1° - - -
4/29 1:30pm 64 8 G 18 62° 15% - - 14° 62.7° 49.1° - - -
4/29 1:20pm 34 6 G 17 62° 16% - - 15° 62.6° 49.1° - - -
4/29 1:10pm 58 7 G 15 61° 15% - - 14° 62.5° 49.1° - - -
4/29 1:00pm 40 4 G 11 61° 18% - - 18° 62.5° 49.1° - - -
4/29 12:50pm 48 6 G 13 61° 17% - - 15° 61.7° 49.1° - - -
4/29 12:40pm 87 6 G 13 61° 18% - - 16° 61.4° 49.1° - - -
4/29 12:30pm 90 8 G 17 60° 18% - - 16° 61.3° 49.1° - - -
4/29 12:20pm 39 9 G 20 60° 18% - - 17° 61.3° 49.1° - - -
4/29 12:10pm 40 10 G 17 60° 17% - - 15° 61.3° 49.1° - - -
4/29 12:00pm 73 9 G 19 61° 18% - - 17° 61.3° 49.1° - - -
4/29 11:50am 95 6 G 13 60° 18% - - 16° 61° 49.1° - - -
4/29 11:40am 73 8 G 21 59° 18% - - 15° 59.5° 49.1° - - -
4/29 11:30am 75 8 G 18 59° 19% - - 17° 59.5° 49.1° - - -
4/29 11:20am 92 7 G 17 59° 19% - - 17° 59.5° 49.1° - - -
4/29 11:10am 84 7 G 16 58° 19% - - 16° 59.3° 49.1° - - -
4/29 11:00am 108 7 G 17 58° 20% - - 17° 59.3° 49.1° - - -
4/29 10:50am 83 6 G 14 58° 19% - - 16° 58.7° 49.1° - - -
4/29 10:40am 114 6 G 14 57° 19% - - 15° 58.3° 49.1° - - -
4/29 10:30am 83 9 G 17 57° 19% - - 15° 57.9° 49.1° - - -
4/29 10:20am 42 12 G 24 57° 19% - - 15° 57.9° 49.1° - - -
4/29 10:10am 55 9 G 23 57° 18% - - 14° 57.7° 49.1° - - -
4/29 10:00am 55 11 G 23 56° 18% - - 14° 56.6° 49.1° - - -
4/29 9:50am 59 11 G 23 56° 18% - - 13° 56.6° 49.1° - - -
4/29 9:40am 51 12 G 23 56° 18% - - 13° 56.6° 49.1° - - -
4/29 9:30am 63 7 G 14 56° 18% - - 13° 56.4° 49.1° - - -
4/29 9:20am 80 8 G 20 55° 18% - - 12° 55.7° 49.1° - - -
4/29 9:10am 94 7 G 16 55° 19% - - 13° 55.4° 49.1° - - -
4/29 9:00am 54 7 G 16 55° 18% - - 12° 55.4° 49.1° - - -
4/29 8:50am 93 10 G 23 54° 18% - - 11° 55.2° 49.1° - - -
4/29 8:40am 75 10 G 19 54° 18% - - 11° 55.2° 49.1° - - -
4/29 8:30am 47 12 G 23 54° 17% - - 10° 55.2° 49.1° - - -
4/29 8:20am 70 9 G 18 53° 18% - - 11° 55.2° 49.1° - - -
4/29 8:10am 72 9 G 17 53° 17% - - 10° 55.2° 49.1° - - -
4/29 8:00am 61 9 G 17 53° 17% - - 55.2° 49.1° - - -
4/29 7:50am 57 11 G 21 52° 17% - - 55.2° 49.1° - - -
4/29 7:40am 37 11 G 22 52° 17% - - 55.2° 49.1° - - -
4/29 7:30am 35 8 G 19 52° 18% - - 55.2° 49.1° - - -
4/29 7:20am 59 9 G 18 51° 18% - - 55.2° 49.1° - - -
4/29 7:10am 50 10 G 18 51° 18% - - 55.2° 49.1° - - -
4/29 7:00am 46 9 G 18 51° 18% - - 55.2° 49.1° - - -
4/29 6:50am 53 10 G 20 50° 19% - - 55.2° 49.1° - - -
4/29 6:40am 48 10 G 16 50° 19% - - 55.2° 49.1° - - -
4/29 6:30am 45 9 G 21 50° 19% - - 55.2° 49.1° - - -
4/29 6:20am 32 9 G 18 49° 20% - - 10° 55.2° 49.1° - - -
4/29 6:10am 60 9 G 16 50° 19% - - 55.2° 49.2° - - -
4/29 6:00am 48 10 G 17 50° 19% - - 55.2° 49.2° - - -
4/29 5:50am 50 10 G 17 50° 19% - - 55.2° 49.4° - - -
4/29 5:40am 40 10 G 19 51° 18% - - 55.2° 49.9° - - -
4/29 5:30am 46 10 G 17 51° 18% - - 55.2° 49.9° - - -
4/29 5:20am 48 8 G 15 50° 19% - - 55.2° 49.9° - - -
4/29 5:10am 38 9 G 17 50° 19% - - 55.2° 49.9° - - -
4/29 5:00am 41 8 G 15 50° 19% - - 55.2° 50° - - -
4/29 4:50am 40 9 G 16 51° 18% - - 55.2° 50.4° - - -
4/29 4:40am 37 9 G 16 51° 18% - - 55.2° 50.4° - - -
4/29 4:30am 57 8 G 18 51° 19% - - 10° 55.2° 50.4° - - -
4/29 4:20am 60 9 G 17 51° 19% - - 10° 55.2° 50.6° - - -
4/29 4:10am 57 9 G 17 51° 19% - - 10° 55.2° 50.8° - - -
4/29 4:00am 45 8 G 15 51° 20% - - 11° 55.2° 50.8° - - -
4/29 3:50am 36 9 G 17 51° 20% - - 11° 55.2° 50.8° - - -
4/29 3:40am 40 7 G 16 51° 20% - - 12° 55.2° 51° - - -
4/29 3:30am 43 8 G 15 52° 20% - - 12° 55.2° 51.4° - - -
4/29 3:20am 48 8 G 13 52° 20% - - 12° 55.2° 51.5° - - -
4/29 3:10am 37 8 G 14 52° 19% - - 12° 55.2° 51.8° - - -
4/29 3:00am 50 8 G 13 52° 19% - - 12° 55.2° 52° - - -
4/29 2:50am 50 7 G 15 52° 19% - - 12° 55.2° 52° - - -
4/29 2:40am 48 8 G 16 53° 19% - - 12° 55.2° 52.3° - - -
4/29 2:30am 31 8 G 15 53° 19% - - 12° 55.2° 52.5° - - -
4/29 2:20am 39 8 G 16 53° 19% - - 11° 55.2° 52.5° - - -
4/29 2:10am 49 8 G 19 53° 19% - - 11° 55.2° 52.5° - - -
4/29 2:00am 48 8 G 15 53° 18% - - 12° 55.2° 52.5° - - -
4/29 1:50am 40 8 G 15 53° 20% - - 13° 55.2° 52.5° - - -
4/29 1:40am 38 7 G 14 53° 22% - - 15° 55.2° 52.5° - - -
4/29 1:30am 37 4 G 10 53° 21% - - 15° 55.2° 52.6° - - -
4/29 1:20am 49 6 G 11 54° 20% - - 13° 55.2° 53.3° - - -
4/29 1:10am 52 6 G 12 54° 19% - - 13° 55.2° 53.3° - - -
4/29 1:00am 56 8 G 14 54° 20% - - 14° 55.2° 53.3° - - -
4/29 12:50am 47 6 G 11 54° 24% - - 18° 55.2° 53.3° - - -
4/29 12:40am 57 5 G 13 54° 30% - - 23° 55.2° 53.3° - - -
4/29 12:30am 49 5 G 10 54° 33% - - 26° 55.2° 53.4° - - -
4/29 12:20am 48 5 G 10 54° 33% - - 26° 55.2° 53.8° - - -
4/29 12:10am 39 4 G 9 55° 35% - - 28° 55.2° 54.2° - - -
4/29 12:00am 53 4 G 9 55° 38% - - 30° 67° 48.3° - - -
4/28 11:50pm 57 5 G 9 55° 39% - - 31° 67° 48.3° - - -
4/28 11:40pm 74 4 G 9 55° 43% - - 33° 67° 48.3° - - -
4/28 11:30pm 70 4 G 8 55° 47% - - 35° 67° 48.3° - - -
4/28 11:20pm 89 4 G 7 55° 49% - - 36° 67° 48.3° - - -
4/28 11:10pm 62 3 G 6 56° 47% - - 36° 67° 48.3° - - -
4/28 11:00pm 65 3 G 7 56° 48% - - 36° 67° 48.3° - - -
4/28 10:50pm 61 3 G 7 55° 49% - - 36° 67° 48.3° - - -
4/28 10:40pm 48 2 G 5 53° 54% - - 37° 67° 48.3° - - -
4/28 10:30pm 28 1 G 4 54° 52% - - 37° 67° 48.3° - - -
4/28 10:20pm 46 3 G 6 56° 49% - - 37° 67° 48.3° - - -
4/28 10:10pm 88 4 G 7 56° 48% - - 37° 67° 48.3° - - -
4/28 10:00pm 103 5 G 10 56° 49% - - 37° 67° 48.3° - - -
4/28 9:50pm 96 3 G 6 56° 48% - - 36° 67° 48.3° - - -
4/28 9:40pm 86 3 G 7 54° 51% - - 36° 67° 48.3° - - -
4/28 9:30pm 162 2 G 5 54° 50% - - 36° 67° 48.3° - - -
4/28 9:20pm 165 2 G 4 53° 52% - - 36° 67° 48.3° - - -
4/28 9:10pm 166 1 G 3 52° 56% - - 36° 67° 48.3° - - -
4/28 9:00pm 161 1 G 2 51° 57% - - 37° 67° 48.3° - - -
4/28 8:50pm 139 2 G 3 52° 55% - - 37° 67° 48.3° - - -
4/28 8:40pm 181 1 G 2 53° 53% - - 36° 67° 48.3° - - -
4/28 8:30pm 153 1 G 3 52° 54% - - 36° 67° 48.3° - - -
4/28 8:20pm 157 2 G 3 53° 52% - - 36° 67° 48.3° - - -
4/28 8:10pm 163 2 G 4 53° 53% - - 36° 67° 48.3° - - -
4/28 8:00pm 143 1 G 2 52° 56% - - 37° 67° 48.3° - - -
4/28 7:50pm 173 1 G 1 53° 55% - - 37° 67° 48.3° - - -
4/28 7:40pm 154 1 G 2 53° 54% - - 37° 67° 48.3° - - -
4/28 7:30pm 217 1 G 2 54° 50% - - 36° 67° 48.3° - - -
4/28 7:20pm 228 1 G 3 55° 51% - - 37° 67° 48.3° - - -
4/28 7:10pm 227 1 G 3 56° 51% - - 38° 67° 48.3° - - -
4/28 7:00pm 220 1 G 4 56° 51% - - 38° 67° 48.3° - - -
4/28 6:50pm 235 2 G 5 57° 52% - - 39° 67° 48.3° - - -
4/28 6:40pm 240 2 G 4 57° 53% - - 40° 67° 48.3° - - -
4/28 6:30pm 246 2 G 5 58° 53% - - 41° 67° 48.3° - - -
4/28 6:20pm 250 2 G 7 58° 54% - - 42° 67° 48.3° - - -
4/28 6:10pm 234 3 G 6 58° 54% - - 42° 67° 48.3° - - -
4/28 6:00pm 236 3 G 7 59° 54% - - 42° 67° 48.3° - - -